Blue Puttees — VXKF — position and weather

sailwx.info

Track history (hours):
 
Tides and Currents Weather Stations Pressure Air Temp Water Temp Dewpoint Dewpoint Depression Visibility Wind Speed Wind Dir Waves Ship Positions

Blue Puttees

Last reported at 2018-Feb-22 14:00 UTC. Time now 2018-Feb-22 15:14 UTC.
Position N 46°12' W 060°12'.

Length 200 m; draft 6.2 m.

Type: Cargo ship. MMSI: 316014040.

Wind from 340 at 19 knots

Barometer 1029.5 mb
Air temperature -6.5 ° C
Dewpoint -13.5 ° C

Date/timePositionNaut miles runAvg speedWind from/ knotsBaromVisibWave heightAir tempDewpointWater temp
2018-Feb-22 14:00N 46°12' W 060°12'0 0.0 340 / 191029.5 -6.5-13.5
2018-Feb-22 13:00N 46°12' W 060°12'0 0.0 350 / 141029.4 -5.9-12.6
2018-Feb-22 12:00N 46°12' W 060°12'0 0.0 340 / 181027.3 -6.2-12.9
2018-Feb-22 11:00N 46°12' W 060°12'0 0.0 350 / 151025.9 -4.9-13.1
2018-Feb-22 10:00N 46°12' W 060°12'0 0.0 320 / 171024.3 -3.5-11.4
2018-Feb-22 09:00N 46°12' W 060°12'0 0.0 320 / 101022.8 -2.3-10.6
2018-Feb-22 08:00N 46°12' W 060°12'0 0.0 320 / 191019.7 -0.7-8.7
2018-Feb-22 07:00N 46°12' W 060°12'0 0.0 330 / 171018.0 1.9-3.3
2018-Feb-22 06:00N 46°12' W 060°12'0 0.0 310 / 231015.5 3.5-2.9
2018-Feb-22 05:00N 46°12' W 060°12'0 0.0 310 / 191014.5 5.6-1.4
2018-Feb-22 04:00N 46°12' W 060°12'0 0.0 300 / 181012.3 8.6 4.3
2018-Feb-22 03:00N 46°12' W 060°12'0 0.0 280 / 131011.5 9.8 7.6
2018-Feb-22 02:00N 46°12' W 060°12'0 0.0 280 / 81010.2 9.4 9.4
2018-Feb-22 01:00N 46°12' W 060°12'0 0.0 200 / 41009.5 6.3 6.3
2018-Feb-22 00:00N 46°12' W 060°12'0 0.0 210 / 31009.6 4.3 4.3
2018-Feb-21 23:00N 46°12' W 060°12'0 0.0 200 / 71010.2 4.5 4.5
2018-Feb-21 22:00N 46°12' W 060°12'7 7.3 200 / 81010.8 4.1 4.1
2018-Feb-21 21:00N 46°18' W 060°06'2019.8 230 / 251009.1 3.1 3.1
2018-Feb-21 20:00N 46°36' W 059°54'1312.7 220 / 271009.5 1.6 1.5
2018-Feb-21 19:00N 46°48' W 059°48'2221.8 200 / 241011.0 0.1-0.0
2018-Feb-21 18:00N 47°06' W 059°30'1514.5 040 / 101012.5 -0.2-0.3
2018-Feb-21 17:00N 47°18' W 059°18'1414.5 080 / 81016.0 -0.7-0.8
2018-Feb-21 16:00N 47°30' W 059°06'6 6.0 160 / 151020.3 -0.3-0.4
2018-Feb-21 15:00N 47°36' W 059°06'0 0.0 150 / 71022.3 -0.1-0.2
2018-Feb-21 14:00N 47°36' W 059°06'0 0.0 140 / 91024.3 -0.5-0.6
2018-Feb-21 13:00N 47°36' W 059°06'0 0.0 120 / 151025.0 -1.5-1.6
2018-Feb-21 12:00N 47°36' W 059°06'0 0.0 110 / 191027.4 -3.1-3.3
2018-Feb-21 11:00N 47°36' W 059°06'1312.7 080 / 161027.8 -3.9-4.3
2018-Feb-21 10:00N 47°24' W 059°12'1312.7 090 / 221026.9 -1.2-1.7
2018-Feb-21 09:00N 47°12' W 059°18'1514.5 100 / 151027.8 -1.2-1.4
2018-Feb-21 08:00N 47°00' W 059°30'1312.7 090 / 91028.4 -2.1-2.4
2018-Feb-21 07:00N 46°48' W 059°36'1514.6 050 / 81028.8 -3.1-4.1
2018-Feb-21 06:00N 46°36' W 059°48'1514.6 020 / 101028.9 -3.0-4.2
2018-Feb-21 05:00N 46°24' W 060°00'1514.6 020 / 181028.4 -3.3-4.0
2018-Feb-21 04:00N 46°12' W 060°12'0 0.0 030 / 111029.9 -2.7-3.1
2018-Feb-21 03:00N 46°12' W 060°12'0 0.0 010 / 111030.2 -2.6-2.8
2018-Feb-21 02:00N 46°12' W 060°12'0 0.0 010 / 141029.7 -2.8-3.0
2018-Feb-21 01:00N 46°12' W 060°12'0 0.0 010 / 101030.4 -2.6-2.8
2018-Feb-21 00:00N 46°12' W 060°12'0 0.0 010 / 151030.0 -2.3-2.4
2018-Feb-20 23:00N 46°12' W 060°12'0 0.0 010 / 141029.4 -1.8-1.9
2018-Feb-20 22:00N 46°12' W 060°12'7 7.3 010 / 151029.0 -0.8-0.9
2018-Feb-20 21:00N 46°18' W 060°06'2019.8 010 / 141027.7 -1.1-1.2
2018-Feb-20 20:00N 46°36' W 059°54'1312.7 350 / 91027.4 -1.2-1.3
2018-Feb-20 19:00N 46°48' W 059°48'1514.5 340 / 111026.3 -1.1-1.2
2018-Feb-20 18:00N 47°00' W 059°36'1514.5 340 / 111025.4 -0.9-1.0
2018-Feb-20 17:00N 47°12' W 059°24'1414.5 340 / 91025.1 0.2-0.0
2018-Feb-20 16:00N 47°24' W 059°12'1312.7 300 / 121024.9 0.1-0.0
2018-Feb-20 15:00N 47°36' W 059°06'0 0.0 290 / 61025.5 1.0 0.8
2018-Feb-20 14:00N 47°36' W 059°06'0 0.0 290 / 31026.1 1.2 1.0
2018-Feb-20 13:00N 47°36' W 059°06'0 0.0 330 / 31026.5 -0.1-0.3
2018-Feb-20 12:00N 47°36' W 059°06'0 0.0 270 / 41026.2 -0.0-0.1
2018-Feb-20 11:00N 47°36' W 059°06'1312.7 320 / 21025.8 -0.3-0.5
2018-Feb-20 10:00N 47°24' W 059°12'1312.7 220 / 151025.6 -1.2-1.3
2018-Feb-20 09:00N 47°12' W 059°18'1514.5 220 / 151026.3 -1.1-1.3
2018-Feb-20 08:00N 47°00' W 059°30'1514.5 220 / 171026.6 -0.8-1.2
2018-Feb-20 07:00N 46°48' W 059°42'1312.7 210 / 161027.6 -0.3-1.6
2018-Feb-20 06:00N 46°36' W 059°48'1514.6 210 / 141028.9 -0.9-1.8
2018-Feb-20 05:00N 46°24' W 060°00'1514.6 220 / 141029.0 -0.9-2.0
2018-Feb-20 04:00N 46°12' W 060°12'0 0.0 190 / 121030.1 -1.4-2.3
2018-Feb-20 03:00N 46°12' W 060°12'0 0.0 190 / 51030.4 -1.8-3.1
2018-Feb-20 02:00N 46°12' W 060°12'0 0.0 190 / 51030.6 -1.6-3.0
2018-Feb-20 01:00N 46°12' W 060°12'0 0.0 190 / 71031.1 -1.3-3.3
2018-Feb-20 00:00N 46°12' W 060°12'0 0.0 200 / 91031.4 -1.0-3.7
2018-Feb-19 23:00N 46°12' W 060°12'0 0.0 190 / 81032.1 -0.8-5.1
2018-Feb-19 22:00N 46°12' W 060°12'7 7.3 190 / 71031.8 -0.0-6.2
2018-Feb-19 21:00N 46°18' W 060°06'2019.8 230 / 191030.6 1.7-6.7
2018-Feb-19 20:00N 46°36' W 059°54'1312.7 160 / 171031.6 -1.5-3.2
2018-Feb-19 19:00N 46°48' W 059°48'1514.5 160 / 151032.2 -2.4-3.5
2018-Feb-19 18:00N 47°00' W 059°36'1514.5 210 / 91033.2 -2.5-4.7
2018-Feb-19 17:00N 47°12' W 059°24'1414.5 260 / 121033.7 -3.2-4.3
2018-Feb-19 16:00N 47°24' W 059°12'1312.7 280 / 191033.0 -2.8-4.9
2018-Feb-19 15:00N 47°36' W 059°06'0 0.0 280 / 101034.5 -2.3-3.9
2018-Feb-19 14:00N 47°36' W 059°06'0 0.0 280 / 71033.8 -2.5-4.2
2018-Feb-19 13:00N 47°36' W 059°06'0 0.0 290 / 21033.2 -2.0-7.0
2018-Feb-19 12:00N 47°36' W 059°06'0 0.0 340 / 31032.5 -4.1-8.7
2018-Feb-19 11:00N 47°36' W 059°06'6 6.0 340 / 21031.7 -5.2-8.8
2018-Feb-19 10:00N 47°30' W 059°06'2019.8 350 / 131029.8 -2.8-7.0
2018-Feb-19 09:00N 47°12' W 059°18'1514.5 350 / 161029.1 -3.4-7.0
2018-Feb-19 08:00N 47°00' W 059°30'1312.7 340 / 191028.7 -5.1-6.0
2018-Feb-19 07:00N 46°48' W 059°36'1514.6 330 / 231028.0 -5.0-5.9
2018-Feb-19 06:00N 46°36' W 059°48'1312.7 320 / 131028.9 -5.1-7.7
2018-Feb-19 05:00N 46°24' W 059°54'1717.3 320 / 111027.2 -4.4-7.4
2018-Feb-19 04:00N 46°12' W 060°12'0 0.0 330 / 61026.4 -5.5-9.0
2018-Feb-19 03:00N 46°12' W 060°12'0 0.0 300 / 41024.9 -5.7-8.8
2018-Feb-19 02:00N 46°12' W 060°12'0 0.0 320 / 51023.3 -5.6-8.7
2018-Feb-19 01:00N 46°12' W 060°12'0 0.0 330 / 61022.3 -5.4-8.8
2018-Feb-19 00:00N 46°12' W 060°12'0 0.0 350 / 81021.2 -4.6-8.0
2018-Feb-18 23:00N 46°12' W 060°12'0 0.0 350 / 111020.1 -4.7-7.6
2018-Feb-18 22:00N 46°12' W 060°12'7 7.3 360 / 91019.0 -4.4-7.5
2018-Feb-18 21:00N 46°18' W 060°06'1514.6 010 / 101018.8 -4.4-7.1
2018-Feb-18 20:00N 46°30' W 059°54'1818.5 090 / 51018.2 -4.8-8.1
2018-Feb-18 19:00N 46°48' W 059°48'1010.2 130 / 131018.2 -5.6-9.7
2018-Feb-18 18:00N 46°54' W 059°36'2019.8 160 / 101018.8 -5.9-10.2
2018-Feb-18 17:00N 47°12' W 059°24'1414.5 160 / 121020.0 -6.1-10.5
2018-Feb-18 16:00N 47°24' W 059°12'1312.7 170 / 141020.7 -5.9-11.3
2018-Feb-18 15:00N 47°36' W 059°06'0 0.0 150 / 91023.4 -6.4-10.9
2018-Feb-18 14:00N 47°36' W 059°06'0 0.0 180 / 81024.4 -7.1-12.1
2018-Feb-18 13:00N 47°36' W 059°06'0 0.0 180 / 91024.4 -7.9-13.1
2018-Feb-18 12:00N 47°36' W 059°06'0 0.0 170 / 91025.1 -8.4-12.7
2018-Feb-18 11:00N 47°36' W 059°06'1312.7 350 / 11025.6 -9.9-13.5
2018-Feb-18 10:00N 47°24' W 059°12'1312.7 180 / 81025.8 -9.0-13.5
2018-Feb-18 09:00N 47°12' W 059°18'2019.8 180 / 81026.9 -9.6-13.5
2018-Feb-18 08:00N 46°54' W 059°30'1010.2 170 / 61027.2 -10.1-14.4
2018-Feb-18 07:00N 46°48' W 059°42'1514.6 140 / 71027.3 -10.6-15.7
2018-Feb-18 06:00N 46°36' W 059°54'1312.7 180 / 71028.2 -9.8-15.5
2018-Feb-18 05:00N 46°24' W 060°00'1514.6 280 / 31028.7 -9.7-16.6
2018-Feb-18 04:00N 46°12' W 060°12'0 0.0 230 / 61029.3 -11.1-16.9
2018-Feb-18 03:00N 46°12' W 060°12'0 0.0 230 / 51029.2 -11.8-17.1
2018-Feb-18 02:00N 46°12' W 060°12'0 0.0 230 / 71028.6 -11.8-16.5
2018-Feb-18 01:00N 46°12' W 060°12'0 0.0 270 / 61028.0 -11.5-16.1
2018-Feb-18 00:00N 46°12' W 060°12'0 0.0 290 / 41028.0 -11.6-16.4
2018-Feb-17 23:00N 46°12' W 060°12'0 0.0 320 / 31027.5 -11.3-16.5
2018-Feb-17 22:00N 46°12' W 060°12'7 7.3 310 / 91026.4 -10.8-16.8
2018-Feb-17 21:00N 46°18' W 060°06'2019.8 300 / 241024.7 -10.0-15.8
2018-Feb-17 20:00N 46°36' W 059°54'1514.6 300 / 311021.7 -10.1-15.7
2018-Feb-17 19:00N 46°48' W 059°42'2019.8 300 / 461017.9 -11.0-16.3
2018-Feb-17 18:00N 47°06' W 059°30'1514.5 300 / 481013.8 -10.5-15.1
2018-Feb-17 17:00N 47°18' W 059°18'2019.7 290 / 441012.4 -9.9-13.9
2018-Feb-17 16:00N 47°36' W 059°06'0 0.0 310 / 191015.3 -9.3-11.2
2018-Feb-17 15:00N 47°36' W 059°06'0 0.0 310 / 171014.3 -8.7-14.6
2018-Feb-17 14:00N 47°36' W 059°06'0 0.0 320 / 151012.6 -8.9-13.3
2018-Feb-17 13:00N 47°36' W 059°06'0 0.0 320 / 201010.1 -8.7-14.0
2018-Feb-17 12:00N 47°36' W 059°06'0 0.0 310 / 261006.7 -7.4-12.9
2018-Feb-17 11:00N 47°36' W 059°06'0 0.0 310 / 261004.0 -6.4-11.1
2018-Feb-17 10:00N 47°36' W 059°06'0 0.0 310 / 231002.0 -5.5-9.0
2018-Feb-17 09:00N 47°36' W 059°06'0 0.0 310 / 251000.0 -4.0-8.5
2018-Feb-17 08:00N 47°36' W 059°06'0 0.0 310 / 23998.5 -2.7-6.4
2018-Feb-17 07:00N 47°36' W 059°06'0 0.0 300 / 22997.3 -1.8-3.2
2018-Feb-17 06:00N 47°36' W 059°06'0 0.0 310 / 12996.1 -0.8-1.5
2018-Feb-17 05:00N 47°36' W 059°06'0 0.0 310 / 13995.1 -0.9-1.8
2018-Feb-17 04:00N 47°36' W 059°06'0 0.0 300 / 12994.6 -1.2-1.4
2018-Feb-17 03:00N 47°36' W 059°06'0 0.0 300 / 12994.2 -1.4-1.6
2018-Feb-17 02:00N 47°36' W 059°06'0 0.0 300 / 10994.0 -1.2-1.4
2018-Feb-17 01:00N 47°36' W 059°06'0 0.0 300 / 10994.7 -0.6-1.1
2018-Feb-17 00:00N 47°36' W 059°06'0 0.0 320 / 6995.0 -0.3-1.1
2018-Feb-16 23:00N 47°36' W 059°06'0 0.0 300 / 6995.7 0.5 0.4
2018-Feb-16 22:00N 47°36' W 059°06'1312.7 290 / 4995.6 -0.4-0.6
2018-Feb-16 21:00N 47°24' W 059°12'2019.8 290 / 12996.4 0.3 0.1
2018-Feb-16 20:00N 47°06' W 059°24'1514.5 300 / 14995.9 1.0 0.7
2018-Feb-16 19:00N 46°54' W 059°36'1514.5 350 / 5995.9 2.6 0.3
2018-Feb-16 18:00N 46°42' W 059°48'2019.8 270 / 9995.5 2.2 0.5
2018-Feb-16 17:00N 46°24' W 060°00'1514.6 280 / 12997.0 4.3 0.7
2018-Feb-16 16:00N 46°12' W 060°12'0 0.0 230 / 7997.8 5.5 1.7
2018-Feb-16 15:00N 46°12' W 060°12'0 0.0 230 / 8998.0 4.6 2.8
2018-Feb-16 14:00N 46°12' W 060°12'0 0.0 210 / 11997.6 3.3 3.1
2018-Feb-16 13:00N 46°12' W 060°12'0 0.0 220 / 8997.9 2.8 2.8
2018-Feb-16 12:00N 46°12' W 060°12'0 0.0 200 / 7998.6 1.2 1.1
2018-Feb-16 11:00N 46°12' W 060°12'1312.7 170 / 3997.8 0.4 0.4
2018-Feb-16 10:00N 46°24' W 060°06'1514.6 020 / 10998.2 -1.1-1.2
2018-Feb-16 09:00N 46°36' W 059°54'1312.7 030 / 5998.4 -0.7-0.8
2018-Feb-16 08:00N 46°48' W 059°48'7 7.3 140 / 7998.7 -1.0-1.0
2018-Feb-16 07:00N 46°54' W 059°42'1514.5 140 / 141000.3 -1.6-1.7
2018-Feb-16 06:00N 47°06' W 059°30'1312.7 150 / 161001.4 -2.0-2.1
2018-Feb-16 05:00N 47°18' W 059°24'1414.5 120 / 191002.8 -0.9-1.1
2018-Feb-16 04:00N 47°30' W 059°12'7 7.2 100 / 151005.4 -1.2-1.4
2018-Feb-16 03:00N 47°36' W 059°06'0 0.0 070 / 101006.6 -3.3-3.6
2018-Feb-16 02:00N 47°36' W 059°06'0 0.0 060 / 91007.4 -3.7-5.0
2018-Feb-16 01:00N 47°36' W 059°06'0 0.0 050 / 41007.6 -4.2-5.4
2018-Feb-16 00:00N 47°36' W 059°06'0 0.0 040 / 11007.8 -4.1-4.7
2018-Feb-15 23:00N 47°36' W 059°06'0 0.0 280 / 51008.4 -1.6-3.7
2018-Feb-15 22:00N 47°36' W 059°06'1818.5 330 / 21008.2 -1.7-3.2
2018-Feb-15 21:00N 47°18' W 059°12'2221.8 300 / 61008.6 -1.2-1.6
2018-Feb-15 20:00N 47°00' W 059°30'1514.5 330 / 61008.6 -0.9-2.2
2018-Feb-15 19:00N 46°48' W 059°42'2019.8 030 / 71008.8 -1.1-1.3
2018-Feb-15 18:00N 46°30' W 059°54'1717.3 210 / 101009.4 3.2-1.8
2018-Feb-15 17:00N 46°18' W 060°12'6 6.0 230 / 121009.9 4.1-2.3
2018-Feb-15 16:00N 46°12' W 060°12'0 0.0 240 / 121010.5 3.9-2.4
2018-Feb-15 15:00N 46°12' W 060°12'0 0.0 240 / 131011.2 2.9-1.9
2018-Feb-15 14:00N 46°12' W 060°12'0 0.0 200 / 61011.2 2.7-0.3
2018-Feb-15 13:00N 46°12' W 060°12'0 0.0 210 / 71011.6 1.7 0.8
2018-Feb-15 12:00N 46°12' W 060°12'0 0.0 210 / 11011.3 0.6 0.5
2018-Feb-15 11:00N 46°12' W 060°12'7 7.3 170 / 21011.0 -1.8-1.9
2018-Feb-15 10:00N 46°18' W 060°06'1514.6 230 / 111010.2 0.7 0.5
2018-Feb-15 09:00N 46°30' W 059°54'1312.7 230 / 111010.3 0.5 0.4
2018-Feb-15 08:00N 46°42' W 059°48'1312.7 240 / 111010.3 1.6-0.2
2018-Feb-15 07:00N 46°54' W 059°42'1514.5 240 / 101010.6 -0.4-0.9
2018-Feb-15 06:00N 47°06' W 059°30'1312.7 230 / 111010.4 -0.9-1.1
2018-Feb-15 05:00N 47°18' W 059°24'1414.5 250 / 151010.2 0.5 0.2
2018-Feb-15 04:00N 47°30' W 059°12'7 7.2 260 / 201010.0 0.1-0.4
2018-Feb-15 03:00N 47°36' W 059°06'0 0.0 260 / 111011.7 0.3-0.7
2018-Feb-15 02:00N 47°36' W 059°06'0 0.0 240 / 71012.2 -0.7-1.4
2018-Feb-15 01:00N 47°36' W 059°06'0 0.0 230 / 111012.7 -0.7-1.9
2018-Feb-15 00:00N 47°36' W 059°06'0 0.0 230 / 141013.1 -0.8-2.3
2018-Feb-14 23:00N 47°36' W 059°06'0 0.0 230 / 121013.9 -0.9-3.1
2018-Feb-14 22:00N 47°36' W 059°06'1312.7 230 / 131014.2 -1.0-3.5
2018-Feb-14 21:00N 47°24' W 059°12'2019.8 220 / 221015.6 -1.4-4.9
2018-Feb-14 20:00N 47°06' W 059°24'1514.5 210 / 211016.8 -1.5-5.3
2018-Feb-14 19:00N 46°54' W 059°36'1514.5 210 / 191018.3 -1.6-5.3
2018-Feb-14 18:00N 46°42' W 059°48'2019.8 210 / 171019.4 -0.7-5.4
2018-Feb-14 17:00N 46°24' W 060°00'1514.6 230 / 201021.4 -0.3-6.1
2018-Feb-14 16:00N 46°12' W 060°12'0 0.0 220 / 131022.6 -2.0-8.1
2018-Feb-14 15:00N 46°12' W 060°12'0 0.0 200 / 121024.8 -3.5-9.3
2018-Feb-14 14:00N 46°12' W 060°12'0 0.0 220 / 151025.9 -4.8-11.7
2018-Feb-14 13:00N 46°12' W 060°12'0 0.0 230 / 131026.9 -5.7-13.7
2018-Feb-14 12:00N 46°12' W 060°12'0 0.0 180 / 51028.2 -9.2-13.8
2018-Feb-14 11:00N 46°12' W 060°12'1312.7 220 / 131028.4 -9.4-15.6
2018-Feb-14 10:00N 46°24' W 060°06'1312.7 230 / 181027.8 -8.7-14.4
2018-Feb-14 09:00N 46°36' W 060°00'1312.7 220 / 171028.6 -9.4-14.4
2018-Feb-14 08:00N 46°48' W 059°54'6 6.0 240 / 201029.6 -9.1-16.6
2018-Feb-14 07:00N 46°54' W 059°54'1818.5 250 / 161030.3 -10.1-16.6
2018-Feb-14 06:00N 47°12' W 059°48'1010.1 260 / 201030.1 -10.7-15.1
2018-Feb-14 05:00N 47°18' W 059°36'1717.1 280 / 241030.4 -11.0-14.6
2018-Feb-14 04:00N 47°30' W 059°18'1010.1 290 / 251030.4 -10.7-15.0
2018-Feb-14 03:00N 47°36' W 059°06'0 0.0 300 / 121033.5 -11.2-15.5
2018-Feb-14 02:00N 47°36' W 059°06'0 0.0 290 / 131033.9 -11.5-13.8
2018-Feb-14 01:00N 47°36' W 059°06'0 0.0 290 / 151033.3 -10.8-12.9
2018-Feb-14 00:00N 47°36' W 059°06'0 0.0 300 / 141032.7 -10.2-12.8
2018-Feb-13 23:00N 47°36' W 059°06'6 6.0 300 / 151032.4 -9.9-13.7
2018-Feb-13 22:00N 47°30' W 059°06'1818.5 300 / 351031.0 -10.3-12.5
2018-Feb-13 21:00N 47°12' W 059°12'1818.5 300 / 381032.1 -11.8-14.8
2018-Feb-13 20:00N 46°54' W 059°18'2020.3 300 / 371032.5 -12.5-15.6
2018-Feb-13 19:00N 46°42' W 059°42'2019.8 320 / 321032.1 -11.7-17.4
2018-Feb-13 18:00N 46°24' W 059°54'1717.3 320 / 251033.0 -10.6-16.9
2018-Feb-13 17:00N 46°12' W 060°12'0 0.0 300 / 131033.7 -9.0-18.2
2018-Feb-13 16:00N 46°12' W 060°12'0 0.0 300 / 161033.7 -9.2-18.3
2018-Feb-13 15:00N 46°12' W 060°12'0 0.0 290 / 151032.8 -9.7-18.0
2018-Feb-13 14:00N 46°12' W 060°12'0 0.0 300 / 151032.0 -9.6-17.7
2018-Feb-13 13:00N 46°12' W 060°12'0 0.0 300 / 141031.2 -9.4-16.2
2018-Feb-13 12:00N 46°12' W 060°12'0 0.0 300 / 131029.9 -9.4-15.9
2018-Feb-13 11:00N 46°12' W 060°12'0 0.0 300 / 161028.1 -9.4-16.5
2018-Feb-13 10:00N 46°12' W 060°12'0 0.0 290 / 131026.6 -9.0-16.1
2018-Feb-13 09:00N 46°12' W 060°12'0 0.0 280 / 161026.0 -8.1-15.2
2018-Feb-13 08:00N 46°12' W 060°12'0 0.0 290 / 171025.0 -7.1-14.5
2018-Feb-13 07:00N 46°12' W 060°12'0 0.0 300 / 161024.1 -6.3-13.5
2018-Feb-13 06:00N 46°12' W 060°12'0 0.0 290 / 121023.5 -5.5-13.5
2018-Feb-13 05:00N 46°12' W 060°12'0 0.0 300 / 141022.5 -4.8-12.7
2018-Feb-13 04:00N 46°12' W 060°12'0 0.0 300 / 161021.2 -4.1-12.8
2018-Feb-13 03:00N 46°12' W 060°12'0 0.0 300 / 151020.3 -3.3-13.2
2018-Feb-13 02:00N 46°12' W 060°12'0 0.0 300 / 131019.4 -2.5-12.0
2018-Feb-13 01:00N 46°12' W 060°12'0 0.0 300 / 151018.4 -2.1-10.9
2018-Feb-13 00:00N 46°12' W 060°12'0 0.0 310 / 191016.9 -1.5-9.6
2018-Feb-12 23:00N 46°12' W 060°12'0 0.0 310 / 171015.1 -0.9-7.5
2018-Feb-12 22:00N 46°12' W 060°12'7 7.3 330 / 141013.9 0.5-3.5
2018-Feb-12 21:00N 46°18' W 060°06'3216.2 310 / 221011.2 1.4-0.5
2018-Feb-12 19:00N 46°48' W 059°48'1514.5 290 / 271007.5 0.8-4.1
2018-Feb-12 18:00N 47°00' W 059°36'1514.5 280 / 431003.2 0.6-0.1
2018-Feb-12 17:00N 47°12' W 059°24'1414.5 280 / 311004.8 0.4 0.2
2018-Feb-12 16:00N 47°24' W 059°12'1312.7 280 / 391003.8 0.2 0.1
2018-Feb-12 15:00N 47°36' W 059°06'0 0.0 290 / 131006.7 1.9 1.8
2018-Feb-12 14:00N 47°36' W 059°06'   290 / 11007.0 1.4 1.3
Track history (hours):
 
Tides and Currents Weather Stations Pressure Air Temp Water Temp Dewpoint Dewpoint Depression Visibility Wind Speed Wind Dir Waves Ship Positions

Blue Puttees

Last reported at 2018-Feb-22 14:00 UTC. Time now 2018-Feb-22 15:14 UTC.
Position N 46°12' W 060°12'.

Length 200 m; draft 6.2 m.

Type: Cargo ship. MMSI: 316014040.

Wind from 340 at 19 knots

Barometer 1029.5 mb
Air temperature -6.5 ° C
Dewpoint -13.5 ° C

Date/timePositionNaut miles runAvg speedWind from/ knotsBaromVisibWave heightAir tempDewpointWater temp
2018-Feb-22 14:00N 46°12' W 060°12'0 0.0 340 / 191029.5 -6.5-13.5
2018-Feb-22 13:00N 46°12' W 060°12'0 0.0 350 / 141029.4 -5.9-12.6
2018-Feb-22 12:00N 46°12' W 060°12'0 0.0 340 / 181027.3 -6.2-12.9
2018-Feb-22 11:00N 46°12' W 060°12'0 0.0 350 / 151025.9 -4.9-13.1
2018-Feb-22 10:00N 46°12' W 060°12'0 0.0 320 / 171024.3 -3.5-11.4
2018-Feb-22 09:00N 46°12' W 060°12'0 0.0 320 / 101022.8 -2.3-10.6
2018-Feb-22 08:00N 46°12' W 060°12'0 0.0 320 / 191019.7 -0.7-8.7
2018-Feb-22 07:00N 46°12' W 060°12'0 0.0 330 / 171018.0 1.9-3.3
2018-Feb-22 06:00N 46°12' W 060°12'0 0.0 310 / 231015.5 3.5-2.9
2018-Feb-22 05:00N 46°12' W 060°12'0 0.0 310 / 191014.5 5.6-1.4
2018-Feb-22 04:00N 46°12' W 060°12'0 0.0 300 / 181012.3 8.6 4.3
2018-Feb-22 03:00N 46°12' W 060°12'0 0.0 280 / 131011.5 9.8 7.6
2018-Feb-22 02:00N 46°12' W 060°12'0 0.0 280 / 81010.2 9.4 9.4
2018-Feb-22 01:00N 46°12' W 060°12'0 0.0 200 / 41009.5 6.3 6.3
2018-Feb-22 00:00N 46°12' W 060°12'0 0.0 210 / 31009.6 4.3 4.3
2018-Feb-21 23:00N 46°12' W 060°12'0 0.0 200 / 71010.2 4.5 4.5
2018-Feb-21 22:00N 46°12' W 060°12'7 7.3 200 / 81010.8 4.1 4.1
2018-Feb-21 21:00N 46°18' W 060°06'2019.8 230 / 251009.1 3.1 3.1
2018-Feb-21 20:00N 46°36' W 059°54'1312.7 220 / 271009.5 1.6 1.5
2018-Feb-21 19:00N 46°48' W 059°48'2221.8 200 / 241011.0 0.1-0.0
2018-Feb-21 18:00N 47°06' W 059°30'1514.5 040 / 101012.5 -0.2-0.3
2018-Feb-21 17:00N 47°18' W 059°18'1414.5 080 / 81016.0 -0.7-0.8
2018-Feb-21 16:00N 47°30' W 059°06'6 6.0 160 / 151020.3 -0.3-0.4
2018-Feb-21 15:00N 47°36' W 059°06'0 0.0 150 / 71022.3 -0.1-0.2
2018-Feb-21 14:00N 47°36' W 059°06'0 0.0 140 / 91024.3 -0.5-0.6
2018-Feb-21 13:00N 47°36' W 059°06'0 0.0 120 / 151025.0 -1.5-1.6
2018-Feb-21 12:00N 47°36' W 059°06'0 0.0 110 / 191027.4 -3.1-3.3
2018-Feb-21 11:00N 47°36' W 059°06'1312.7 080 / 161027.8 -3.9-4.3
2018-Feb-21 10:00N 47°24' W 059°12'1312.7 090 / 221026.9 -1.2-1.7
2018-Feb-21 09:00N 47°12' W 059°18'1514.5 100 / 151027.8 -1.2-1.4
2018-Feb-21 08:00N 47°00' W 059°30'1312.7 090 / 91028.4 -2.1-2.4
2018-Feb-21 07:00N 46°48' W 059°36'1514.6 050 / 81028.8 -3.1-4.1
2018-Feb-21 06:00N 46°36' W 059°48'1514.6 020 / 101028.9 -3.0-4.2
2018-Feb-21 05:00N 46°24' W 060°00'1514.6 020 / 181028.4 -3.3-4.0
2018-Feb-21 04:00N 46°12' W 060°12'0 0.0 030 / 111029.9 -2.7-3.1
2018-Feb-21 03:00N 46°12' W 060°12'0 0.0 010 / 111030.2 -2.6-2.8
2018-Feb-21 02:00N 46°12' W 060°12'0 0.0 010 / 141029.7 -2.8-3.0
2018-Feb-21 01:00N 46°12' W 060°12'0 0.0 010 / 101030.4 -2.6-2.8
2018-Feb-21 00:00N 46°12' W 060°12'0 0.0 010 / 151030.0 -2.3-2.4
2018-Feb-20 23:00N 46°12' W 060°12'0 0.0 010 / 141029.4 -1.8-1.9
2018-Feb-20 22:00N 46°12' W 060°12'7 7.3 010 / 151029.0 -0.8-0.9
2018-Feb-20 21:00N 46°18' W 060°06'2019.8 010 / 141027.7 -1.1-1.2
2018-Feb-20 20:00N 46°36' W 059°54'1312.7 350 / 91027.4 -1.2-1.3
2018-Feb-20 19:00N 46°48' W 059°48'1514.5 340 / 111026.3 -1.1-1.2
2018-Feb-20 18:00N 47°00' W 059°36'1514.5 340 / 111025.4 -0.9-1.0
2018-Feb-20 17:00N 47°12' W 059°24'1414.5 340 / 91025.1 0.2-0.0
2018-Feb-20 16:00N 47°24' W 059°12'1312.7 300 / 121024.9 0.1-0.0
2018-Feb-20 15:00N 47°36' W 059°06'0 0.0 290 / 61025.5 1.0 0.8
2018-Feb-20 14:00N 47°36' W 059°06'0 0.0 290 / 31026.1 1.2 1.0
2018-Feb-20 13:00N 47°36' W 059°06'0 0.0 330 / 31026.5 -0.1-0.3
2018-Feb-20 12:00N 47°36' W 059°06'0 0.0 270 / 41026.2 -0.0-0.1
2018-Feb-20 11:00N 47°36' W 059°06'1312.7 320 / 21025.8 -0.3-0.5
2018-Feb-20 10:00N 47°24' W 059°12'1312.7 220 / 151025.6 -1.2-1.3
2018-Feb-20 09:00N 47°12' W 059°18'1514.5 220 / 151026.3 -1.1-1.3
2018-Feb-20 08:00N 47°00' W 059°30'1514.5 220 / 171026.6 -0.8-1.2
2018-Feb-20 07:00N 46°48' W 059°42'1312.7 210 / 161027.6 -0.3-1.6
2018-Feb-20 06:00N 46°36' W 059°48'1514.6 210 / 141028.9 -0.9-1.8
2018-Feb-20 05:00N 46°24' W 060°00'1514.6 220 / 141029.0 -0.9-2.0
2018-Feb-20 04:00N 46°12' W 060°12'0 0.0 190 / 121030.1 -1.4-2.3
2018-Feb-20 03:00N 46°12' W 060°12'0 0.0 190 / 51030.4 -1.8-3.1
2018-Feb-20 02:00N 46°12' W 060°12'0 0.0 190 / 51030.6 -1.6-3.0
2018-Feb-20 01:00N 46°12' W 060°12'0 0.0 190 / 71031.1 -1.3-3.3
2018-Feb-20 00:00N 46°12' W 060°12'0 0.0 200 / 91031.4 -1.0-3.7
2018-Feb-19 23:00N 46°12' W 060°12'0 0.0 190 / 81032.1 -0.8-5.1
2018-Feb-19 22:00N 46°12' W 060°12'7 7.3 190 / 71031.8 -0.0-6.2
2018-Feb-19 21:00N 46°18' W 060°06'2019.8 230 / 191030.6 1.7-6.7
2018-Feb-19 20:00N 46°36' W 059°54'1312.7 160 / 171031.6 -1.5-3.2
2018-Feb-19 19:00N 46°48' W 059°48'1514.5 160 / 151032.2 -2.4-3.5
2018-Feb-19 18:00N 47°00' W 059°36'1514.5 210 / 91033.2 -2.5-4.7
2018-Feb-19 17:00N 47°12' W 059°24'1414.5 260 / 121033.7 -3.2-4.3
2018-Feb-19 16:00N 47°24' W 059°12'1312.7 280 / 191033.0 -2.8-4.9
2018-Feb-19 15:00N 47°36' W 059°06'0 0.0 280 / 101034.5 -2.3-3.9
2018-Feb-19 14:00N 47°36' W 059°06'0 0.0 280 / 71033.8 -2.5-4.2
2018-Feb-19 13:00N 47°36' W 059°06'0 0.0 290 / 21033.2 -2.0-7.0
2018-Feb-19 12:00N 47°36' W 059°06'0 0.0 340 / 31032.5 -4.1-8.7
2018-Feb-19 11:00N 47°36' W 059°06'6 6.0 340 / 21031.7 -5.2-8.8
2018-Feb-19 10:00N 47°30' W 059°06'2019.8 350 / 131029.8 -2.8-7.0
2018-Feb-19 09:00N 47°12' W 059°18'1514.5 350 / 161029.1 -3.4-7.0
2018-Feb-19 08:00N 47°00' W 059°30'1312.7 340 / 191028.7 -5.1-6.0
2018-Feb-19 07:00N 46°48' W 059°36'1514.6 330 / 231028.0 -5.0-5.9
2018-Feb-19 06:00N 46°36' W 059°48'1312.7 320 / 131028.9 -5.1-7.7
2018-Feb-19 05:00N 46°24' W 059°54'1717.3 320 / 111027.2 -4.4-7.4
2018-Feb-19 04:00N 46°12' W 060°12'0 0.0 330 / 61026.4 -5.5-9.0
2018-Feb-19 03:00N 46°12' W 060°12'0 0.0 300 / 41024.9 -5.7-8.8
2018-Feb-19 02:00N 46°12' W 060°12'0 0.0 320 / 51023.3 -5.6-8.7
2018-Feb-19 01:00N 46°12' W 060°12'0 0.0 330 / 61022.3 -5.4-8.8
2018-Feb-19 00:00N 46°12' W 060°12'0 0.0 350 / 81021.2 -4.6-8.0
2018-Feb-18 23:00N 46°12' W 060°12'0 0.0 350 / 111020.1 -4.7-7.6
2018-Feb-18 22:00N 46°12' W 060°12'7 7.3 360 / 91019.0 -4.4-7.5
2018-Feb-18 21:00N 46°18' W 060°06'1514.6 010 / 101018.8 -4.4-7.1
2018-Feb-18 20:00N 46°30' W 059°54'1818.5 090 / 51018.2 -4.8-8.1
2018-Feb-18 19:00N 46°48' W 059°48'1010.2 130 / 131018.2 -5.6-9.7
2018-Feb-18 18:00N 46°54' W 059°36'2019.8 160 / 101018.8 -5.9-10.2
2018-Feb-18 17:00N 47°12' W 059°24'1414.5 160 / 121020.0 -6.1-10.5
2018-Feb-18 16:00N 47°24' W 059°12'1312.7 170 / 141020.7 -5.9-11.3
2018-Feb-18 15:00N 47°36' W 059°06'0 0.0 150 / 91023.4 -6.4-10.9
2018-Feb-18 14:00N 47°36' W 059°06'0 0.0 180 / 81024.4 -7.1-12.1
2018-Feb-18 13:00N 47°36' W 059°06'0 0.0 180 / 91024.4 -7.9-13.1
2018-Feb-18 12:00N 47°36' W 059°06'0 0.0 170 / 91025.1 -8.4-12.7
2018-Feb-18 11:00N 47°36' W 059°06'1312.7 350 / 11025.6 -9.9-13.5
2018-Feb-18 10:00N 47°24' W 059°12'1312.7 180 / 81025.8 -9.0-13.5
2018-Feb-18 09:00N 47°12' W 059°18'2019.8 180 / 81026.9 -9.6-13.5
2018-Feb-18 08:00N 46°54' W 059°30'1010.2 170 / 61027.2 -10.1-14.4
2018-Feb-18 07:00N 46°48' W 059°42'1514.6 140 / 71027.3 -10.6-15.7
2018-Feb-18 06:00N 46°36' W 059°54'1312.7 180 / 71028.2 -9.8-15.5
2018-Feb-18 05:00N 46°24' W 060°00'1514.6 280 / 31028.7 -9.7-16.6
2018-Feb-18 04:00N 46°12' W 060°12'0 0.0 230 / 61029.3 -11.1-16.9
2018-Feb-18 03:00N 46°12' W 060°12'0 0.0 230 / 51029.2 -11.8-17.1
2018-Feb-18 02:00N 46°12' W 060°12'0 0.0 230 / 71028.6 -11.8-16.5
2018-Feb-18 01:00N 46°12' W 060°12'0 0.0 270 / 61028.0 -11.5-16.1
2018-Feb-18 00:00N 46°12' W 060°12'0 0.0 290 / 41028.0 -11.6-16.4
2018-Feb-17 23:00N 46°12' W 060°12'0 0.0 320 / 31027.5 -11.3-16.5
2018-Feb-17 22:00N 46°12' W 060°12'7 7.3 310 / 91026.4 -10.8-16.8
2018-Feb-17 21:00N 46°18' W 060°06'2019.8 300 / 241024.7 -10.0-15.8
2018-Feb-17 20:00N 46°36' W 059°54'1514.6 300 / 311021.7 -10.1-15.7
2018-Feb-17 19:00N 46°48' W 059°42'2019.8 300 / 461017.9 -11.0-16.3
2018-Feb-17 18:00N 47°06' W 059°30'1514.5 300 / 481013.8 -10.5-15.1
2018-Feb-17 17:00N 47°18' W 059°18'2019.7 290 / 441012.4 -9.9-13.9
2018-Feb-17 16:00N 47°36' W 059°06'0 0.0 310 / 191015.3 -9.3-11.2
2018-Feb-17 15:00N 47°36' W 059°06'0 0.0 310 / 171014.3 -8.7-14.6
2018-Feb-17 14:00N 47°36' W 059°06'0 0.0 320 / 151012.6 -8.9-13.3
2018-Feb-17 13:00N 47°36' W 059°06'0 0.0 320 / 201010.1 -8.7-14.0
2018-Feb-17 12:00N 47°36' W 059°06'0 0.0 310 / 261006.7 -7.4-12.9
2018-Feb-17 11:00N 47°36' W 059°06'0 0.0 310 / 261004.0 -6.4-11.1
2018-Feb-17 10:00N 47°36' W 059°06'0 0.0 310 / 231002.0 -5.5-9.0
2018-Feb-17 09:00N 47°36' W 059°06'0 0.0 310 / 251000.0 -4.0-8.5
2018-Feb-17 08:00N 47°36' W 059°06'0 0.0 310 / 23998.5 -2.7-6.4
2018-Feb-17 07:00N 47°36' W 059°06'0 0.0 300 / 22997.3 -1.8-3.2
2018-Feb-17 06:00N 47°36' W 059°06'0 0.0 310 / 12996.1 -0.8-1.5
2018-Feb-17 05:00N 47°36' W 059°06'0 0.0 310 / 13995.1 -0.9-1.8
2018-Feb-17 04:00N 47°36' W 059°06'0 0.0 300 / 12994.6 -1.2-1.4
2018-Feb-17 03:00N 47°36' W 059°06'0 0.0 300 / 12994.2 -1.4-1.6
2018-Feb-17 02:00N 47°36' W 059°06'0 0.0 300 / 10994.0 -1.2-1.4
2018-Feb-17 01:00N 47°36' W 059°06'0 0.0 300 / 10994.7 -0.6-1.1
2018-Feb-17 00:00N 47°36' W 059°06'0 0.0 320 / 6995.0 -0.3-1.1
2018-Feb-16 23:00N 47°36' W 059°06'0 0.0 300 / 6995.7 0.5 0.4
2018-Feb-16 22:00N 47°36' W 059°06'1312.7 290 / 4995.6 -0.4-0.6
2018-Feb-16 21:00N 47°24' W 059°12'2019.8 290 / 12996.4 0.3 0.1
2018-Feb-16 20:00N 47°06' W 059°24'1514.5 300 / 14995.9 1.0 0.7
2018-Feb-16 19:00N 46°54' W 059°36'1514.5 350 / 5995.9 2.6 0.3
2018-Feb-16 18:00N 46°42' W 059°48'2019.8 270 / 9995.5 2.2 0.5
2018-Feb-16 17:00N 46°24' W 060°00'1514.6 280 / 12997.0 4.3 0.7
2018-Feb-16 16:00N 46°12' W 060°12'0 0.0 230 / 7997.8 5.5 1.7
2018-Feb-16 15:00N 46°12' W 060°12'0 0.0 230 / 8998.0 4.6 2.8
2018-Feb-16 14:00N 46°12' W 060°12'0 0.0 210 / 11997.6 3.3 3.1
2018-Feb-16 13:00N 46°12' W 060°12'0 0.0 220 / 8997.9 2.8 2.8
2018-Feb-16 12:00N 46°12' W 060°12'0 0.0 200 / 7998.6 1.2 1.1
2018-Feb-16 11:00N 46°12' W 060°12'1312.7 170 / 3997.8 0.4 0.4
2018-Feb-16 10:00N 46°24' W 060°06'1514.6 020 / 10998.2 -1.1-1.2
2018-Feb-16 09:00N 46°36' W 059°54'1312.7 030 / 5998.4 -0.7-0.8
2018-Feb-16 08:00N 46°48' W 059°48'7 7.3 140 / 7998.7 -1.0-1.0
2018-Feb-16 07:00N 46°54' W 059°42'1514.5 140 / 141000.3 -1.6-1.7
2018-Feb-16 06:00N 47°06' W 059°30'1312.7 150 / 161001.4 -2.0-2.1
2018-Feb-16 05:00N 47°18' W 059°24'1414.5 120 / 191002.8 -0.9-1.1
2018-Feb-16 04:00N 47°30' W 059°12'7 7.2 100 / 151005.4 -1.2-1.4
2018-Feb-16 03:00N 47°36' W 059°06'0 0.0 070 / 101006.6 -3.3-3.6
2018-Feb-16 02:00N 47°36' W 059°06'0 0.0 060 / 91007.4 -3.7-5.0
2018-Feb-16 01:00N 47°36' W 059°06'0 0.0 050 / 41007.6 -4.2-5.4
2018-Feb-16 00:00N 47°36' W 059°06'0 0.0 040 / 11007.8 -4.1-4.7
2018-Feb-15 23:00N 47°36' W 059°06'0 0.0 280 / 51008.4 -1.6-3.7
2018-Feb-15 22:00N 47°36' W 059°06'1818.5 330 / 21008.2 -1.7-3.2
2018-Feb-15 21:00N 47°18' W 059°12'2221.8 300 / 61008.6 -1.2-1.6
2018-Feb-15 20:00N 47°00' W 059°30'1514.5 330 / 61008.6 -0.9-2.2
2018-Feb-15 19:00N 46°48' W 059°42'2019.8 030 / 71008.8 -1.1-1.3
2018-Feb-15 18:00N 46°30' W 059°54'1717.3 210 / 101009.4 3.2-1.8
2018-Feb-15 17:00N 46°18' W 060°12'6 6.0 230 / 121009.9 4.1-2.3
2018-Feb-15 16:00N 46°12' W 060°12'0 0.0 240 / 121010.5 3.9-2.4
2018-Feb-15 15:00N 46°12' W 060°12'0 0.0 240 / 131011.2 2.9-1.9
2018-Feb-15 14:00N 46°12' W 060°12'0 0.0 200 / 61011.2 2.7-0.3
2018-Feb-15 13:00N 46°12' W 060°12'0 0.0 210 / 71011.6 1.7 0.8
2018-Feb-15 12:00N 46°12' W 060°12'0 0.0 210 / 11011.3 0.6 0.5
2018-Feb-15 11:00N 46°12' W 060°12'7 7.3 170 / 21011.0 -1.8-1.9
2018-Feb-15 10:00N 46°18' W 060°06'1514.6 230 / 111010.2 0.7 0.5
2018-Feb-15 09:00N 46°30' W 059°54'1312.7 230 / 111010.3 0.5 0.4
2018-Feb-15 08:00N 46°42' W 059°48'1312.7 240 / 111010.3 1.6-0.2
2018-Feb-15 07:00N 46°54' W 059°42'1514.5 240 / 101010.6 -0.4-0.9
2018-Feb-15 06:00N 47°06' W 059°30'1312.7 230 / 111010.4 -0.9-1.1
2018-Feb-15 05:00N 47°18' W 059°24'1414.5 250 / 151010.2 0.5 0.2
2018-Feb-15 04:00N 47°30' W 059°12'7 7.2 260 / 201010.0 0.1-0.4
2018-Feb-15 03:00N 47°36' W 059°06'0 0.0 260 / 111011.7 0.3-0.7
2018-Feb-15 02:00N 47°36' W 059°06'0 0.0 240 / 71012.2 -0.7-1.4
2018-Feb-15 01:00N 47°36' W 059°06'0 0.0 230 / 111012.7 -0.7-1.9
2018-Feb-15 00:00N 47°36' W 059°06'0 0.0 230 / 141013.1 -0.8-2.3
2018-Feb-14 23:00N 47°36' W 059°06'0 0.0 230 / 121013.9 -0.9-3.1
2018-Feb-14 22:00N 47°36' W 059°06'1312.7 230 / 131014.2 -1.0-3.5
2018-Feb-14 21:00N 47°24' W 059°12'2019.8 220 / 221015.6 -1.4-4.9
2018-Feb-14 20:00N 47°06' W 059°24'1514.5 210 / 211016.8 -1.5-5.3
2018-Feb-14 19:00N 46°54' W 059°36'1514.5 210 / 191018.3 -1.6-5.3
2018-Feb-14 18:00N 46°42' W 059°48'2019.8 210 / 171019.4 -0.7-5.4
2018-Feb-14 17:00N 46°24' W 060°00'1514.6 230 / 201021.4 -0.3-6.1
2018-Feb-14 16:00N 46°12' W 060°12'0 0.0 220 / 131022.6 -2.0-8.1
2018-Feb-14 15:00N 46°12' W 060°12'0 0.0 200 / 121024.8 -3.5-9.3
2018-Feb-14 14:00N 46°12' W 060°12'0 0.0 220 / 151025.9 -4.8-11.7
2018-Feb-14 13:00N 46°12' W 060°12'0 0.0 230 / 131026.9 -5.7-13.7
2018-Feb-14 12:00N 46°12' W 060°12'0 0.0 180 / 51028.2 -9.2-13.8
2018-Feb-14 11:00N 46°12' W 060°12'1312.7 220 / 131028.4 -9.4-15.6
2018-Feb-14 10:00N 46°24' W 060°06'1312.7 230 / 181027.8 -8.7-14.4
2018-Feb-14 09:00N 46°36' W 060°00'1312.7 220 / 171028.6 -9.4-14.4
2018-Feb-14 08:00N 46°48' W 059°54'6 6.0 240 / 201029.6 -9.1-16.6
2018-Feb-14 07:00N 46°54' W 059°54'1818.5 250 / 161030.3 -10.1-16.6
2018-Feb-14 06:00N 47°12' W 059°48'1010.1 260 / 201030.1 -10.7-15.1
2018-Feb-14 05:00N 47°18' W 059°36'1717.1 280 / 241030.4 -11.0-14.6
2018-Feb-14 04:00N 47°30' W 059°18'1010.1 290 / 251030.4 -10.7-15.0
2018-Feb-14 03:00N 47°36' W 059°06'0 0.0 300 / 121033.5 -11.2-15.5
2018-Feb-14 02:00N 47°36' W 059°06'0 0.0 290 / 131033.9 -11.5-13.8
2018-Feb-14 01:00N 47°36' W 059°06'0 0.0 290 / 151033.3 -10.8-12.9
2018-Feb-14 00:00N 47°36' W 059°06'0 0.0 300 / 141032.7 -10.2-12.8
2018-Feb-13 23:00N 47°36' W 059°06'6 6.0 300 / 151032.4 -9.9-13.7
2018-Feb-13 22:00N 47°30' W 059°06'1818.5 300 / 351031.0 -10.3-12.5
2018-Feb-13 21:00N 47°12' W 059°12'1818.5 300 / 381032.1 -11.8-14.8
2018-Feb-13 20:00N 46°54' W 059°18'2020.3 300 / 371032.5 -12.5-15.6
2018-Feb-13 19:00N 46°42' W 059°42'2019.8 320 / 321032.1 -11.7-17.4
2018-Feb-13 18:00N 46°24' W 059°54'1717.3 320 / 251033.0 -10.6-16.9
2018-Feb-13 17:00N 46°12' W 060°12'0 0.0 300 / 131033.7 -9.0-18.2
2018-Feb-13 16:00N 46°12' W 060°12'0 0.0 300 / 161033.7 -9.2-18.3
2018-Feb-13 15:00N 46°12' W 060°12'0 0.0 290 / 151032.8 -9.7-18.0
2018-Feb-13 14:00N 46°12' W 060°12'0 0.0 300 / 151032.0 -9.6-17.7
2018-Feb-13 13:00N 46°12' W 060°12'0 0.0 300 / 141031.2 -9.4-16.2
2018-Feb-13 12:00N 46°12' W 060°12'0 0.0 300 / 131029.9 -9.4-15.9
2018-Feb-13 11:00N 46°12' W 060°12'0 0.0 300 / 161028.1 -9.4-16.5
2018-Feb-13 10:00N 46°12' W 060°12'0 0.0 290 / 131026.6 -9.0-16.1
2018-Feb-13 09:00N 46°12' W 060°12'0 0.0 280 / 161026.0 -8.1-15.2
2018-Feb-13 08:00N 46°12' W 060°12'0 0.0 290 / 171025.0 -7.1-14.5
2018-Feb-13 07:00N 46°12' W 060°12'0 0.0 300 / 161024.1 -6.3-13.5
2018-Feb-13 06:00N 46°12' W 060°12'0 0.0 290 / 121023.5 -5.5-13.5
2018-Feb-13 05:00N 46°12' W 060°12'0 0.0 300 / 141022.5 -4.8-12.7
2018-Feb-13 04:00N 46°12' W 060°12'0 0.0 300 / 161021.2 -4.1-12.8
2018-Feb-13 03:00N 46°12' W 060°12'0 0.0 300 / 151020.3 -3.3-13.2
2018-Feb-13 02:00N 46°12' W 060°12'0 0.0 300 / 131019.4 -2.5-12.0
2018-Feb-13 01:00N 46°12' W 060°12'0 0.0 300 / 151018.4 -2.1-10.9
2018-Feb-13 00:00N 46°12' W 060°12'0 0.0 310 / 191016.9 -1.5-9.6
2018-Feb-12 23:00N 46°12' W 060°12'0 0.0 310 / 171015.1 -0.9-7.5
2018-Feb-12 22:00N 46°12' W 060°12'7 7.3 330 / 141013.9 0.5-3.5
2018-Feb-12 21:00N 46°18' W 060°06'3216.2 310 / 221011.2 1.4-0.5
2018-Feb-12 19:00N 46°48' W 059°48'1514.5 290 / 271007.5 0.8-4.1
2018-Feb-12 18:00N 47°00' W 059°36'1514.5 280 / 431003.2 0.6-0.1
2018-Feb-12 17:00N 47°12' W 059°24'1414.5 280 / 311004.8 0.4 0.2
2018-Feb-12 16:00N 47°24' W 059°12'1312.7 280 / 391003.8 0.2 0.1
2018-Feb-12 15:00N 47°36' W 059°06'0 0.0 290 / 131006.7 1.9 1.8
2018-Feb-12 14:00N 47°36' W 059°06'   290 / 11007.0 1.4 1.3

Dump ship's entire track history